createdAt,value
2018-12-03T00:00:01.191Z,55.10
2018-12-03T00:05:04.496Z,55.20
2018-12-03T00:10:08.748Z,55.20
2018-12-03T00:15:11.989Z,55.00
2018-12-03T00:20:15.273Z,55.00
2018-12-03T00:25:18.483Z,55.00
2018-12-03T00:30:21.715Z,55.00
2018-12-03T00:35:24.955Z,55.10
2018-12-03T00:40:28.185Z,55.00
2018-12-03T00:45:31.401Z,55.00
2018-12-03T00:50:34.614Z,54.90
2018-12-03T00:55:38.056Z,54.90
2018-12-03T01:00:41.310Z,54.90
2018-12-03T01:05:44.687Z,55.00
2018-12-03T01:10:47.908Z,55.00
2018-12-03T01:15:51.121Z,54.90
2018-12-03T01:20:54.409Z,55.00
2018-12-03T01:25:57.600Z,55.00
2018-12-03T01:31:00.927Z,55.00
2018-12-03T01:36:04.137Z,54.80
2018-12-03T01:41:07.385Z,54.90
2018-12-03T01:46:10.564Z,55.00
2018-12-03T01:51:13.739Z,54.90
2018-12-03T01:56:17.137Z,55.00
2018-12-03T02:01:20.340Z,54.90
2018-12-03T02:06:23.568Z,55.00
2018-12-03T02:11:26.778Z,54.90
2018-12-03T02:16:30.345Z,54.70
2018-12-03T02:21:33.523Z,54.70
2018-12-03T02:26:36.694Z,54.90
2018-12-03T02:31:39.903Z,54.80
2018-12-03T02:36:43.092Z,54.80
2018-12-03T02:41:46.511Z,54.80
2018-12-03T02:46:49.800Z,54.90
2018-12-03T02:51:53.426Z,54.90
2018-12-03T02:56:56.659Z,54.70
2018-12-03T03:01:59.898Z,54.70
2018-12-03T03:07:03.112Z,54.80
2018-12-03T03:12:06.411Z,54.80
2018-12-03T03:17:09.616Z,54.80
2018-12-03T03:22:12.859Z,54.80
2018-12-03T03:27:16.097Z,54.80
2018-12-03T03:32:19.765Z,54.90
2018-12-03T03:37:22.957Z,54.80
2018-12-03T03:42:26.193Z,54.70
2018-12-03T03:47:29.391Z,54.90
2018-12-03T03:52:32.599Z,54.80
2018-12-03T03:57:35.776Z,54.90
2018-12-03T04:02:39.055Z,54.90
2018-12-03T04:07:43.422Z,54.90
2018-12-03T04:12:47.162Z,54.90
2018-12-03T04:17:50.370Z,54.70
2018-12-03T04:22:54.687Z,54.70
2018-12-03T04:27:57.880Z,54.70
2018-12-03T04:33:01.065Z,54.70
2018-12-03T04:38:04.377Z,54.60
2018-12-03T04:43:07.718Z,54.60
2018-12-03T04:48:10.928Z,54.60
2018-12-03T04:53:14.142Z,54.70
2018-12-03T04:58:17.379Z,54.60
2018-12-03T05:03:20.625Z,54.70
2018-12-03T05:08:24.029Z,54.70
2018-12-03T05:13:27.315Z,54.70
2018-12-03T05:18:30.946Z,54.70
2018-12-03T05:23:34.162Z,54.70
2018-12-03T05:28:37.516Z,54.60
2018-12-03T05:33:40.735Z,54.70
2018-12-03T05:38:44.011Z,54.70
2018-12-03T05:43:47.329Z,54.70
2018-12-03T05:48:50.707Z,54.60
2018-12-03T05:53:54.223Z,54.70
2018-12-03T05:58:57.405Z,54.70
2018-12-03T06:04:00.627Z,54.70
2018-12-03T06:09:04.545Z,54.70
2018-12-03T06:14:07.885Z,54.70
2018-12-03T06:19:11.219Z,54.70
2018-12-03T06:24:14.743Z,54.60
2018-12-03T06:29:18.000Z,54.70
2018-12-03T06:34:21.315Z,54.70
2018-12-03T06:39:24.587Z,54.70
2018-12-03T06:44:27.843Z,54.60
2018-12-03T06:49:31.110Z,54.50
2018-12-03T06:54:34.313Z,54.60
2018-12-03T06:59:37.741Z,54.60
2018-12-03T07:04:41.174Z,54.60
2018-12-03T07:09:44.844Z,54.60
2018-12-03T07:14:48.159Z,54.70
2018-12-03T07:19:51.420Z,54.70
2018-12-03T07:24:54.670Z,54.70
2018-12-03T07:29:57.969Z,55.40
2018-12-03T07:35:01.368Z,54.80
2018-12-03T07:40:05.252Z,54.70
2018-12-03T07:45:14.910Z,54.70
2018-12-03T07:50:19.654Z,54.70
2018-12-03T07:55:24.044Z,54.70
2018-12-03T08:00:30.083Z,54.70
2018-12-03T08:05:59.562Z,54.90
2018-12-03T08:11:03.225Z,54.90
2018-12-03T08:16:06.703Z,55.00
2018-12-03T08:21:10.147Z,54.90
2018-12-03T08:26:13.461Z,55.20
2018-12-03T08:31:16.991Z,55.20
2018-12-03T08:36:20.444Z,55.20
2018-12-03T08:41:23.735Z,55.50
2018-12-03T08:46:26.938Z,55.70
2018-12-03T08:51:30.217Z,56.00
2018-12-03T08:56:33.449Z,56.50
2018-12-03T09:01:36.714Z,56.80
2018-12-03T09:06:40.555Z,56.60
2018-12-03T09:11:46.851Z,56.40
2018-12-03T09:16:50.349Z,56.50
2018-12-03T09:21:53.707Z,56.50
2018-12-03T09:26:57.099Z,56.60
2018-12-03T09:32:00.337Z,56.70
2018-12-03T09:37:03.533Z,57.00
2018-12-03T09:42:06.887Z,56.20
2018-12-03T09:47:10.089Z,55.90
2018-12-03T09:52:13.591Z,55.70
2018-12-03T09:57:16.867Z,54.70
2018-12-03T10:02:25.938Z,54.80
2018-12-03T10:07:29.315Z,54.90
2018-12-03T10:12:32.590Z,54.80
2018-12-03T10:17:35.878Z,54.60
2018-12-03T10:22:41.220Z,54.20
2018-12-03T10:27:44.522Z,54.20
2018-12-03T10:32:50.456Z,54.20
2018-12-03T10:37:53.764Z,54.00
2018-12-03T10:42:57.614Z,54.00
2018-12-03T10:48:00.800Z,53.70
2018-12-03T10:53:04.060Z,53.30
2018-12-03T10:58:07.874Z,52.90
2018-12-03T11:03:13.645Z,52.60
2018-12-03T11:08:22.117Z,52.30
2018-12-03T11:13:25.389Z,52.20
2018-12-03T11:18:29.800Z,52.20
2018-12-03T11:23:34.625Z,52.20
2018-12-03T11:28:46.523Z,52.40
2018-12-03T11:33:50.441Z,52.20
2018-12-03T11:39:02.046Z,52.00
2018-12-03T11:44:05.973Z,51.90
2018-12-03T11:49:09.416Z,51.70
2018-12-03T11:54:12.682Z,51.60
2018-12-03T11:59:15.992Z,51.60
2018-12-03T12:04:19.186Z,51.80
2018-12-03T12:09:22.502Z,52.10
2018-12-03T12:14:27.235Z,52.20
2018-12-03T12:19:30.438Z,52.20
2018-12-03T12:24:33.820Z,52.20
2018-12-03T12:29:37.161Z,52.30
2018-12-03T12:34:40.368Z,52.30
2018-12-03T12:39:43.676Z,52.30
2018-12-03T12:44:47.116Z,52.40
2018-12-03T12:49:50.370Z,52.30
2018-12-03T12:54:53.573Z,52.20
2018-12-03T12:59:56.840Z,52.10
2018-12-03T13:05:00.143Z,51.60
2018-12-03T13:10:03.791Z,51.40
2018-12-03T13:15:10.765Z,51.60
2018-12-03T13:20:16.624Z,51.70
2018-12-03T13:25:20.697Z,51.70
2018-12-03T13:30:24.174Z,51.70
2018-12-03T13:35:27.750Z,51.70
2018-12-03T13:40:31.116Z,52.20
2018-12-03T13:45:34.330Z,51.30
2018-12-03T13:50:37.667Z,51.10
2018-12-03T13:55:40.965Z,50.90
2018-12-03T14:00:44.244Z,50.90
2018-12-03T14:05:54.964Z,50.80
2018-12-03T14:11:12.717Z,51.00
2018-12-03T14:17:23.590Z,51.10
2018-12-03T14:22:36.898Z,51.10
2018-12-03T14:27:40.158Z,51.00
2018-12-03T14:32:43.731Z,50.60
2018-12-03T14:37:46.944Z,50.40
2018-12-03T14:42:50.515Z,50.30
2018-12-03T14:47:53.701Z,50.30
2018-12-03T14:52:57.169Z,51.10
2018-12-03T14:58:00.422Z,50.50
2018-12-03T15:03:04.010Z,50.60
2018-12-03T15:08:07.180Z,50.70
2018-12-03T15:13:10.542Z,50.60
2018-12-03T15:18:13.920Z,50.80
2018-12-03T15:23:17.284Z,50.80
2018-12-03T15:28:20.578Z,50.60
2018-12-03T15:33:23.951Z,50.30
2018-12-03T15:38:27.186Z,50.20
2018-12-03T15:43:30.464Z,50.10
2018-12-03T15:48:33.732Z,50.00
2018-12-03T15:53:37.064Z,50.00
2018-12-03T15:58:40.321Z,49.80
2018-12-03T16:03:43.523Z,49.50
2018-12-03T16:08:47.037Z,49.40
2018-12-03T16:13:50.304Z,49.30
2018-12-03T16:18:53.524Z,49.30
2018-12-03T16:23:56.947Z,49.20
2018-12-03T16:29:00.306Z,50.10
2018-12-03T16:34:03.727Z,49.60
2018-12-03T16:39:08.096Z,49.50
2018-12-03T16:44:11.338Z,49.80
2018-12-03T16:49:14.574Z,49.60
2018-12-03T16:54:17.912Z,49.60
2018-12-03T16:59:21.509Z,49.80
2018-12-03T17:04:25.019Z,50.10
2018-12-03T17:09:28.279Z,50.80
2018-12-03T17:14:31.936Z,50.80
2018-12-03T17:19:35.681Z,50.70
2018-12-03T17:24:40.824Z,50.70
2018-12-03T17:29:52.176Z,50.70
2018-12-03T17:34:55.745Z,50.60
2018-12-03T17:39:59.388Z,50.60
2018-12-03T17:45:02.886Z,50.40
2018-12-03T17:50:06.556Z,50.80
2018-12-03T17:55:09.930Z,50.90
2018-12-03T18:00:14.441Z,50.60
2018-12-03T18:05:17.825Z,50.40
2018-12-03T18:10:21.353Z,50.30
2018-12-03T18:15:24.606Z,51.00
2018-12-03T18:20:27.977Z,50.90
2018-12-03T18:25:31.165Z,50.50
2018-12-03T18:30:34.393Z,50.60
2018-12-03T18:35:37.730Z,50.60
2018-12-03T18:40:41.880Z,50.90
2018-12-03T18:45:45.122Z,50.70
2018-12-03T18:50:50.970Z,50.50
2018-12-03T18:55:54.254Z,50.60
2018-12-03T19:00:57.491Z,50.70
2018-12-03T19:06:01.269Z,51.30
2018-12-03T19:11:05.050Z,50.80
2018-12-03T19:16:08.352Z,51.00
2018-12-03T19:21:11.652Z,51.10
2018-12-03T19:26:15.019Z,51.30
2018-12-03T19:31:18.361Z,51.40
2018-12-03T19:36:21.769Z,51.50
2018-12-03T19:41:25.214Z,51.60
2018-12-03T19:46:28.549Z,51.70
2018-12-03T19:51:32.122Z,51.70
2018-12-03T19:56:35.526Z,51.70
2018-12-03T20:01:38.916Z,51.80
2018-12-03T20:06:42.495Z,51.90
2018-12-03T20:11:46.093Z,51.90
2018-12-03T20:16:49.464Z,52.00
2018-12-03T20:21:53.136Z,52.20
2018-12-03T20:27:14.984Z,52.30
2018-12-03T20:32:29.303Z,52.30
2018-12-03T20:37:44.039Z,52.50
2018-12-03T20:42:50.526Z,52.40
2018-12-03T20:47:54.553Z,52.60
2018-12-03T20:52:57.893Z,53.00
2018-12-03T20:58:01.174Z,52.70
2018-12-03T21:03:04.588Z,52.80
2018-12-03T21:08:07.889Z,52.80
2018-12-03T21:13:11.263Z,52.80
2018-12-03T21:18:14.552Z,53.00
2018-12-03T21:23:17.929Z,53.20
2018-12-03T21:28:21.353Z,53.40
2018-12-03T21:33:24.723Z,53.50
2018-12-03T21:38:28.224Z,53.60
2018-12-03T21:43:31.587Z,53.70
2018-12-03T21:48:34.944Z,53.90
2018-12-03T21:53:38.303Z,54.00
2018-12-03T21:58:42.353Z,53.90
2018-12-03T22:03:45.906Z,54.00
2018-12-03T22:08:49.805Z,54.00
2018-12-03T22:13:53.183Z,54.10
2018-12-03T22:18:56.984Z,54.20
2018-12-03T22:24:00.395Z,54.30
2018-12-03T22:29:03.751Z,54.10
2018-12-03T22:34:06.975Z,54.30
2018-12-03T22:39:10.232Z,54.30
2018-12-03T22:44:13.990Z,54.30
2018-12-03T22:49:19.311Z,54.30
2018-12-03T22:54:22.597Z,54.30
2018-12-03T22:59:26.082Z,54.40
2018-12-03T23:04:29.568Z,54.50
2018-12-03T23:09:32.863Z,54.60
2018-12-03T23:14:36.188Z,54.70
2018-12-03T23:19:39.554Z,54.50
2018-12-03T23:24:42.874Z,54.40
2018-12-03T23:29:46.232Z,54.60
2018-12-03T23:34:49.638Z,54.40
2018-12-03T23:39:52.920Z,54.40
2018-12-03T23:44:56.265Z,54.60
2018-12-03T23:49:59.821Z,54.80
2018-12-03T23:55:03.246Z,55.10
